MLD weather

Malad City Airport
Malad City, Idaho, United States

Public forecast

Using degrees Fahrenheit for public forecast. Weather courtesy of forecast.io.

METAR (pilot weather report)

Closest report is Logan-Cache Airport, 30.0 nm (55.6 km) SE. Retrieved 2019/09/22 20:51 UTC (43 minutes ago):

KLGU 222051Z AUTO 19004KT 10SM CLR 19/02 A3012 RMK AO2 SLP176 T01890017 58019

TAF (pilot weather forecast)

Closest forecast is Logan-Cache Airport, 30.0 nm (55.6 km) SE. Retrieved 2019/09/22 18:33 UTC (3 hours ago):

TAF KLGU 221729Z 2218/2318 VRB03KT P6SM SKC